메인 페이지
METAR-TAF:

METAR-TAF

공항 :

Naval Air Station Whiting Field North

밀튼, 플로리다, 미국

위도: 30-44-00N, 경도: 087-01-00W, 고도: 60m

현재 날씨관측

예보는 58분 전, 05:56시(UTC)에 발표되었습니다.
북북동3kt
온도 24°C
습도 100%
기압 1018 hPa
시정: 14.5km
맑음

METAR: KNSE 210556Z AUTO 03003KT 9SM CLR 24/24 A3006 RMK AO2 SLP162 T02390239 10283 20239 403280228 58001 $

시각: 01:54 (06:54 UTC)

예보

예보 대상 시간: 20일 23시부터 21일 23시까지 (UTC)
여러 방향의 바람 4kt
시정 10km 이상
고도 5000ft 상공 구름 조금
고도 12000ft 상공 구름 조금
고도 25000ft 상공 구름 보통
일시적
21일 09시부터 21일 13시까지 (UTC)
kt
시정: 3200m
고도 300ft 상공 구름 보통
박무
21일 1430시부터 (UTC)
동남동6kt
시정 10km 이상
고도 2500ft 상공 구름 보통
고도 25000ft 상공 구름 보통
21일 1600시부터 (UTC)
남남동8kt
시정 10km 이상
고도 2500ft 상공 구름 보통
고도 5000ft 상공 구름 보통, 적란운.
고도 12000ft 상공 구름 많음
고도 25000ft 상공 구름 많음
시계 내 뇌우
일시적
21일 17시부터 21일 23시까지 (UTC)
여러 방향의 바람 15kt, 순간 최대 풍속 30kt
시정: 2308m
고도 2500ft 상공 구름 보통
고도 5000ft 상공 구름 많음, 적란운.
고도 12000ft 상공 구름 많음
뇌우, 비

TAF: KNSE 2023/2123 VRB04KT 9999 FEW050 FEW120 SCT250 QNH2998INS TEMPO 2109/2113 00000KT 3200 BR SCT003 FM211430 11006KT 9999 SCT025 SCT250 QNH3002INS FM211600 16008KT 9999 VCTS SCT025 SCT050CB BKN120 BKN250 QNH2993INS TEMPO 2117/2123 VRB15G30KT 4800 TSRA SCT025 BKN050CB BKN120 AUTOMATED SENSOR METWATCH 2104 TIL 2111 T23/2111Z T33/2119Z COR 2308 FN00002

4,000개 이상의 공항 관측 자료 및 예보 (METAR 및 TAF 보고).

지도상에서 검색 가능한 기상관측소가 노란 점과 빨간 점으로 표시되어 있습니다.

기상관측소 명을 보려면 표시 위로 마우스를 이동하세요.

날씨 관측과 예보를 보려면 클릭하세요.

지도 변경 : 확대하려면 엑스 표시가 있는 녹색 버튼, 축소하려면 빼기 표시가 있는 녹색 버튼, 다음 페이지의 지도를 보려면 녹색 화살표를 클릭하세요.


METAR-TAF: